Epworth, Illinois
Current Conditions -  °F | °C
As of 3:35 AM on Saturday 25 Oct 2014 (Local Time) from KCUL Reporting Station
Scattered Clouds Scattered Clouds  
Wind Chill: 55°   Ceiling: Unl
Heat Index: 55°   Visibility: 7mi
Dew Point: 54°   Wind: 5mph
Humidity: 96%   Direction: 170°S
Pressure: 30"   Gusts: NA
Location:  38.0491°N, 88.1124°W
Report Text: KCUL 250835Z AUTO 17004KT 7SM SCT060 13/12 A3000 RMK AO2 T01300124
Loading
Personal Weather Stations






























Interactive Weather Map
Tropical Storm Tracking
New forecast layout! Learn more

10-Day Weather Forecast

Advertisements
Track Severe Weather on mobile